This is the latest recevied weather packets stored in our database for station/object R2AKT-13. If no packets are shown the sender has not sent any weather packets the latest 10 day(s).
| Time | Temp. | Humidity | Pressure | Rain* | Wind** | Luminosity | Snow |
|---|---|---|---|---|---|---|---|
| 1777541264 | 3.89° C | 52% | 997.8 hPa | - | 0 m/s | - | - |
| 1777540714 | 3.89° C | 50% | 997.7 hPa | - | 0.89 m/s, 115° | - | - |
| 1777540174 | 3.89° C | 56% | 997.7 hPa | - | 0.89 m/s, 94° | - | - |
| 1777539654 | 3.89° C | 59% | 997.8 hPa | - | 0.45 m/s, 309° | - | - |
| 1777538584 | 3.89° C | 58% | 997.7 hPa | - | 0.45 m/s, 116° | - | - |
| 1777538064 | 3.33° C | 55% | 997.8 hPa | - | 0.89 m/s, 286° | - | - |
| 1777537524 | 3.89° C | 59% | 997.8 hPa | - | 0 m/s | - | - |
| 1777537038 | 3.89° C | 57% | 997.8 hPa | - | 1.34 m/s, 298° | - | - |
| 1777536499 | 3.33° C | 56% | 997.9 hPa | - | 0.89 m/s, 182° | - | - |
| 1777534874 | 3.33° C | 61% | 998 hPa | - | 0.45 m/s, 212° | - | - |
| 1777534334 | 2.78° C | 60% | 997.9 hPa | - | 1.79 m/s, 283° | - | - |
| 1777533784 | 3.33° C | 61% | 997.9 hPa | - | 1.79 m/s, 305° | - | - |
| 1777533259 | 3.33° C | 62% | 997.9 hPa | - | 0.89 m/s, 220° | - | - |
| 1777532748 | 2.78° C | 63% | 997.9 hPa | - | 1.34 m/s, 269° | - | - |
| 1777532158 | 2.78° C | 64% | 997.9 hPa | - | 0.89 m/s, 282° | - | - |
| 1777531574 | 2.78° C | 65% | 997.9 hPa | - | 1.34 m/s, 290° | - | - |
| 1777531068 | 2.78° C | 65% | 997.9 hPa | - | 0.89 m/s, 230° | - | - |
| 1777530519 | 2.22° C | 67% | 997.9 hPa | - | 1.34 m/s, 287° | - | - |
| 1777530014 | 2.78° C | 65% | 997.8 hPa | - | 0.45 m/s, 78° | - | - |
| 1777529430 | 2.22° C | 69% | 997.9 hPa | - | 0.45 m/s, 163° | - | - |
| 1777528879 | 2.22° C | 70% | 997.8 hPa | - | 0.89 m/s, 263° | - | - |
| 1777528339 | 2.22° C | 68% | 997.8 hPa | - | 0.89 m/s, 273° | - | - |
| 1777527859 | 2.22° C | 69% | 997.8 hPa | - | 0.89 m/s, 280° | - | - |
| 1777527308 | 2.22° C | 69% | 997.8 hPa | - | 0.45 m/s, 97° | - | - |
| 1777526768 | 1.67° C | 73% | 997.8 hPa | - | 0.89 m/s, 277° | - | - |
* Rain since midnight (hover to see other rain measurements)
** Current wind speed in m/s (hover to see current wind gust speed)